createdAt,value
2018-11-03T00:00:19.244Z,2.94
2018-11-03T00:01:19.181Z,2.93
2018-11-03T00:02:19.172Z,2.79
2018-11-03T00:03:19.348Z,2.87
2018-11-03T00:04:19.201Z,2.87
2018-11-03T00:05:19.176Z,2.86
2018-11-03T00:06:19.127Z,2.79
2018-11-03T00:07:19.142Z,2.75
2018-11-03T00:08:19.141Z,2.73
2018-11-03T00:09:19.129Z,2.75
2018-11-03T00:10:19.086Z,2.78
2018-11-03T00:11:19.190Z,2.71
2018-11-03T00:12:19.105Z,2.71
2018-11-03T00:13:19.052Z,2.73
2018-11-03T00:14:19.097Z,2.75
2018-11-03T00:15:19.040Z,2.68
2018-11-03T00:16:19.017Z,2.69
2018-11-03T00:17:19.083Z,2.75
2018-11-03T00:18:18.994Z,2.65
2018-11-03T00:19:19.011Z,2.68
2018-11-03T00:20:18.972Z,2.65
2018-11-03T00:21:18.961Z,2.65
2018-11-03T00:22:18.958Z,2.65
2018-11-03T00:23:19.032Z,2.58
2018-11-03T00:24:18.976Z,2.66
2018-11-03T00:25:18.921Z,2.68
2018-11-03T00:26:18.917Z,2.68
2018-11-03T00:27:18.977Z,2.75
2018-11-03T00:28:18.907Z,2.66
2018-11-03T00:29:18.915Z,2.61
2018-11-03T00:30:18.918Z,2.57
2018-11-03T00:31:18.862Z,2.66
2018-11-03T00:32:18.852Z,2.57
2018-11-03T00:33:18.836Z,2.53
2018-11-03T00:34:18.851Z,2.43
2018-11-03T00:35:18.812Z,2.45
2018-11-03T00:36:18.798Z,2.43
2018-11-03T00:37:18.872Z,2.48
2018-11-03T00:38:18.815Z,2.45
2018-11-03T00:39:18.796Z,2.47
2018-11-03T00:40:18.796Z,2.47
2018-11-03T00:41:18.755Z,2.43
2018-11-03T00:42:18.915Z,2.40
2018-11-03T00:43:18.733Z,2.53
2018-11-03T00:44:18.738Z,2.50
2018-11-03T00:45:18.722Z,2.39
2018-11-03T00:46:18.725Z,2.36
2018-11-03T00:47:18.681Z,2.40
2018-11-03T00:48:18.686Z,2.37
2018-11-03T00:49:18.677Z,2.43
2018-11-03T00:50:18.669Z,2.45
2018-11-03T00:51:18.661Z,2.42
2018-11-03T00:52:18.628Z,2.40
2018-11-03T00:53:18.669Z,2.42
2018-11-03T00:54:18.636Z,2.45
2018-11-03T00:55:18.599Z,2.40
2018-11-03T00:56:18.626Z,2.37
2018-11-03T00:57:18.567Z,2.45
2018-11-03T00:58:18.573Z,2.42
2018-11-03T00:59:18.591Z,2.37
2018-11-03T01:00:18.585Z,2.36
2018-11-03T01:01:18.545Z,2.42
2018-11-03T01:02:18.514Z,2.36
2018-11-03T01:03:18.510Z,2.36
2018-11-03T01:04:18.528Z,2.37
2018-11-03T01:05:18.627Z,2.36
2018-11-03T01:06:18.470Z,2.35
2018-11-03T01:07:18.523Z,2.42
2018-11-03T01:08:18.450Z,2.39
2018-11-03T01:09:18.449Z,2.37
2018-11-03T01:10:18.479Z,2.28
2018-11-03T01:11:18.438Z,2.18
2018-11-03T01:12:18.415Z,2.15
2018-11-03T01:13:18.393Z,2.22
2018-11-03T01:14:18.394Z,2.32
2018-11-03T01:15:18.405Z,2.14
2018-11-03T01:16:18.373Z,2.17
2018-11-03T01:17:18.352Z,2.28
2018-11-03T01:18:18.351Z,2.21
2018-11-03T01:19:18.338Z,2.21
2018-11-03T01:20:18.359Z,2.18
2018-11-03T01:21:18.309Z,2.33
2018-11-03T01:22:18.294Z,2.18
2018-11-03T01:23:18.281Z,2.19
2018-11-03T01:24:18.274Z,2.15
2018-11-03T01:25:18.291Z,2.22
2018-11-03T01:26:18.259Z,2.14
2018-11-03T01:27:18.341Z,2.19
2018-11-03T01:28:18.241Z,2.18
2018-11-03T01:29:18.261Z,2.21
2018-11-03T01:30:18.231Z,2.12
2018-11-03T01:31:18.202Z,2.18
2018-11-03T01:32:18.203Z,2.19
2018-11-03T01:33:18.181Z,2.14
2018-11-03T01:34:18.194Z,2.17
2018-11-03T01:35:18.178Z,2.19
2018-11-03T01:36:18.192Z,2.15
2018-11-03T01:37:18.136Z,2.19
2018-11-03T01:38:18.209Z,2.22
2018-11-03T01:39:18.167Z,2.11
2018-11-03T01:40:18.117Z,2.01
2018-11-03T01:41:18.133Z,2.14
2018-11-03T01:42:18.073Z,2.10
2018-11-03T01:43:18.062Z,2.14
2018-11-03T01:44:18.057Z,2.04
2018-11-03T01:45:18.190Z,2.19
2018-11-03T01:46:18.038Z,2.12
2018-11-03T01:47:18.021Z,2.10
2018-11-03T01:48:18.044Z,2.11
2018-11-03T01:49:18.011Z,2.01
2018-11-03T01:50:18.033Z,2.10
2018-11-03T01:51:18.015Z,2.01
2018-11-03T01:52:17.966Z,2.12
2018-11-03T01:53:17.982Z,2.12
2018-11-03T01:54:17.941Z,2.19
2018-11-03T01:55:17.972Z,2.11
2018-11-03T01:56:18.006Z,2.12
2018-11-03T01:57:17.925Z,2.10
2018-11-03T01:58:17.898Z,2.24
2018-11-03T01:59:17.892Z,2.19
2018-11-03T02:00:18.004Z,2.11
2018-11-03T02:01:17.900Z,2.10
2018-11-03T02:02:17.870Z,2.10
2018-11-03T02:03:17.932Z,2.10
2018-11-03T02:04:17.841Z,2.11
2018-11-03T02:05:17.939Z,2.07
2018-11-03T02:06:17.837Z,2.03
2018-11-03T02:07:17.821Z,2.10
2018-11-03T02:08:17.790Z,2.12
2018-11-03T02:09:17.825Z,2.10
2018-11-03T02:10:17.770Z,2.14
2018-11-03T02:11:17.810Z,2.11
2018-11-03T02:12:17.790Z,2.15
2018-11-03T02:13:17.745Z,2.06
2018-11-03T02:14:17.784Z,2.06
2018-11-03T02:15:17.725Z,2.07
2018-11-03T02:16:17.747Z,2.14
2018-11-03T02:17:17.758Z,2.06
2018-11-03T02:18:17.686Z,2.10
2018-11-03T02:19:17.708Z,2.04
2018-11-03T02:20:17.656Z,2.10
2018-11-03T02:21:17.742Z,2.06
2018-11-03T02:22:17.694Z,2.12
2018-11-03T02:23:17.649Z,2.04
2018-11-03T02:24:17.624Z,2.14
2018-11-03T02:25:17.608Z,2.07
2018-11-03T02:26:17.599Z,2.01
2018-11-03T02:27:17.646Z,2.14
2018-11-03T02:28:17.584Z,1.95
2018-11-03T02:29:17.560Z,1.89
2018-11-03T02:30:17.587Z,1.95
2018-11-03T02:31:17.548Z,1.89
2018-11-03T02:32:17.577Z,1.97
2018-11-03T02:33:17.515Z,1.85
2018-11-03T02:34:17.505Z,1.92
2018-11-03T02:35:17.615Z,1.95
2018-11-03T02:36:17.503Z,1.95
2018-11-03T02:37:17.537Z,1.92
2018-11-03T02:38:17.530Z,1.97
2018-11-03T02:39:17.451Z,1.93
2018-11-03T02:40:17.480Z,1.91
2018-11-03T02:41:17.443Z,1.92
2018-11-03T02:42:17.442Z,1.95
2018-11-03T02:43:17.409Z,1.93
2018-11-03T02:44:17.406Z,2.01
2018-11-03T02:45:17.435Z,1.99
2018-11-03T02:46:17.404Z,1.87
2018-11-03T02:47:17.389Z,1.87
2018-11-03T02:48:17.359Z,1.92
2018-11-03T02:49:17.342Z,1.92
2018-11-03T02:50:17.332Z,1.77
2018-11-03T02:51:17.321Z,1.78
2018-11-03T02:52:17.389Z,1.77
2018-11-03T02:53:17.337Z,1.80
2018-11-03T02:54:17.289Z,1.74
2018-11-03T02:55:17.290Z,1.73
2018-11-03T02:56:17.267Z,1.78
2018-11-03T02:57:17.303Z,1.71
2018-11-03T02:58:17.297Z,1.75
2018-11-03T02:59:17.231Z,1.77
2018-11-03T03:00:17.222Z,1.74
2018-11-03T03:01:17.228Z,1.75
2018-11-03T03:02:17.205Z,1.74
2018-11-03T03:03:17.300Z,1.78
2018-11-03T03:04:17.202Z,1.85
2018-11-03T03:05:17.184Z,1.87
2018-11-03T03:06:17.156Z,1.95
2018-11-03T03:07:17.302Z,1.93
2018-11-03T03:08:17.160Z,2.01
2018-11-03T03:09:17.139Z,1.92
2018-11-03T03:10:17.125Z,1.92
2018-11-03T03:11:17.126Z,1.91
2018-11-03T03:12:17.117Z,1.91
2018-11-03T03:13:17.120Z,1.82
2018-11-03T03:14:17.187Z,1.82
2018-11-03T03:15:17.091Z,1.77
2018-11-03T03:16:17.076Z,1.75
2018-11-03T03:17:17.035Z,1.71
2018-11-03T03:18:17.052Z,1.73
2018-11-03T03:19:17.028Z,1.78
2018-11-03T03:20:17.094Z,1.69
2018-11-03T03:21:16.993Z,1.73
2018-11-03T03:22:16.995Z,1.81
2018-11-03T03:23:17.015Z,1.81
2018-11-03T03:24:16.957Z,1.75
2018-11-03T03:25:16.952Z,1.78
2018-11-03T03:26:16.941Z,1.77
2018-11-03T03:27:17.014Z,1.89
2018-11-03T03:28:16.935Z,1.81
2018-11-03T03:29:17.015Z,1.93
2018-11-03T03:30:16.892Z,1.92
2018-11-03T03:31:16.920Z,1.99
2018-11-03T03:32:16.894Z,1.93
2018-11-03T03:33:16.863Z,1.93
2018-11-03T03:34:16.913Z,1.91
2018-11-03T03:35:16.844Z,1.97
2018-11-03T03:36:16.845Z,2.03
2018-11-03T03:37:16.825Z,1.99
2018-11-03T03:38:16.846Z,2.00
2018-11-03T03:39:17.402Z,2.00
2018-11-03T03:40:16.792Z,2.00
2018-11-03T03:41:16.774Z,1.99
2018-11-03T03:42:16.789Z,1.99
2018-11-03T03:43:16.799Z,1.97
2018-11-03T03:44:16.802Z,2.00
2018-11-03T03:45:16.750Z,2.00
2018-11-03T03:46:16.728Z,1.97
2018-11-03T03:47:16.704Z,2.06
2018-11-03T03:48:16.743Z,2.00
2018-11-03T03:49:16.709Z,1.95
2018-11-03T03:50:16.671Z,2.00
2018-11-03T03:51:16.688Z,1.87
2018-11-03T03:52:16.652Z,1.97
2018-11-03T03:53:16.694Z,1.95
2018-11-03T03:54:16.683Z,1.97
2018-11-03T03:55:16.626Z,1.91
2018-11-03T03:56:16.617Z,1.99
2018-11-03T03:57:16.615Z,1.95
2018-11-03T03:58:16.644Z,1.99
2018-11-03T03:59:16.593Z,1.93
2018-11-03T04:00:16.678Z,2.01
2018-11-03T04:01:16.561Z,1.93
2018-11-03T04:02:16.577Z,2.00
2018-11-03T04:03:16.543Z,1.95
2018-11-03T04:04:16.652Z,1.97
2018-11-03T04:05:16.533Z,1.92
2018-11-03T04:06:16.500Z,2.00
2018-11-03T04:07:16.522Z,1.99
2018-11-03T04:08:16.471Z,1.93
2018-11-03T04:09:16.481Z,1.92
2018-11-03T04:10:16.481Z,1.87
2018-11-03T04:11:16.466Z,1.97
2018-11-03T04:12:16.427Z,1.91
2018-11-03T04:13:16.454Z,1.95
2018-11-03T04:14:16.422Z,1.97
2018-11-03T04:15:16.442Z,2.00
2018-11-03T04:16:16.399Z,2.01
2018-11-03T04:17:16.469Z,1.93
2018-11-03T04:18:16.392Z,2.03
2018-11-03T04:19:16.365Z,1.95
2018-11-03T04:20:16.388Z,2.01
2018-11-03T04:21:16.333Z,2.03
2018-11-03T04:22:16.364Z,1.91
2018-11-03T04:23:16.341Z,1.92
2018-11-03T04:24:16.307Z,1.91
2018-11-03T04:25:16.328Z,1.95
2018-11-03T04:26:16.343Z,1.81
2018-11-03T04:27:16.271Z,1.92
2018-11-03T04:28:16.283Z,1.89
2018-11-03T04:29:16.243Z,1.89
2018-11-03T04:30:16.254Z,1.91
2018-11-03T04:31:16.281Z,1.91
2018-11-03T04:32:16.228Z,1.92
2018-11-03T04:33:16.249Z,1.89
2018-11-03T04:34:16.206Z,1.89
2018-11-03T04:35:16.200Z,1.92
2018-11-03T04:36:16.219Z,1.85
2018-11-03T04:37:16.161Z,1.99
2018-11-03T04:38:16.208Z,1.97
2018-11-03T04:39:16.149Z,2.06
2018-11-03T04:40:16.126Z,1.97
2018-11-03T04:41:16.149Z,2.01
2018-11-03T04:42:16.102Z,2.03
2018-11-03T04:43:16.144Z,2.06
2018-11-03T04:44:16.078Z,2.01
2018-11-03T04:45:16.091Z,2.10
2018-11-03T04:46:16.086Z,2.03
2018-11-03T04:47:16.055Z,2.04
2018-11-03T04:48:16.125Z,2.00
2018-11-03T04:49:16.063Z,1.99
2018-11-03T04:50:16.018Z,2.11
2018-11-03T04:51:16.032Z,1.97
2018-11-03T04:52:16.058Z,2.03
2018-11-03T04:53:15.983Z,1.99
2018-11-03T04:54:15.986Z,1.97
2018-11-03T04:55:16.029Z,1.99
2018-11-03T04:56:16.041Z,2.07
2018-11-03T04:57:15.954Z,2.04
2018-11-03T04:58:15.926Z,1.99
2018-11-03T04:59:15.924Z,2.01
2018-11-03T05:00:15.911Z,2.06
2018-11-03T05:01:15.912Z,2.11
2018-11-03T05:02:15.943Z,2.11
2018-11-03T05:03:15.893Z,2.01
2018-11-03T05:04:15.869Z,2.07
2018-11-03T05:05:15.868Z,2.10
2018-11-03T05:06:15.855Z,2.06
2018-11-03T05:07:15.859Z,2.11
2018-11-03T05:08:15.835Z,2.11
2018-11-03T05:09:15.856Z,2.12
2018-11-03T05:10:15.823Z,2.06
2018-11-03T05:11:15.801Z,2.10
2018-11-03T05:12:15.816Z,2.11
2018-11-03T05:13:15.772Z,2.11
2018-11-03T05:14:15.767Z,2.11
2018-11-03T05:15:15.741Z,2.06
2018-11-03T05:16:15.747Z,2.12
2018-11-03T05:17:15.758Z,2.06
2018-11-03T05:18:15.775Z,2.00
2018-11-03T05:19:15.703Z,2.10
2018-11-03T05:20:15.710Z,2.06
2018-11-03T05:21:15.748Z,2.01
2018-11-03T05:22:15.706Z,2.10
2018-11-03T05:23:15.668Z,2.18
2018-11-03T05:24:15.642Z,2.07
2018-11-03T05:25:15.669Z,2.22
2018-11-03T05:26:15.620Z,2.19
2018-11-03T05:27:15.630Z,2.19
2018-11-03T05:28:15.771Z,2.19
2018-11-03T05:29:15.602Z,2.18
2018-11-03T05:30:15.601Z,2.22
2018-11-03T05:31:15.712Z,2.15
2018-11-03T05:32:15.592Z,2.24
2018-11-03T05:33:15.575Z,2.21
2018-11-03T05:34:15.556Z,2.18
2018-11-03T05:35:15.558Z,2.22
2018-11-03T05:36:15.538Z,2.32
2018-11-03T05:37:15.506Z,2.32
2018-11-03T05:38:15.525Z,2.17
2018-11-03T05:39:15.494Z,2.22
2018-11-03T05:40:15.470Z,2.19
2018-11-03T05:41:15.474Z,2.14
2018-11-03T05:42:15.450Z,2.14
2018-11-03T05:43:15.491Z,2.18
2018-11-03T05:44:15.427Z,2.15
2018-11-03T05:45:15.512Z,2.06
2018-11-03T05:46:15.470Z,2.07
2018-11-03T05:47:15.454Z,2.10
2018-11-03T05:48:15.562Z,2.10
2018-11-03T05:49:15.401Z,2.10
2018-11-03T05:50:15.360Z,2.11
2018-11-03T05:51:15.442Z,2.01
2018-11-03T05:52:15.356Z,2.12
2018-11-03T05:53:15.348Z,2.11
2018-11-03T05:54:15.342Z,2.06
2018-11-03T05:55:15.335Z,2.11
2018-11-03T05:56:15.304Z,2.04
2018-11-03T05:57:15.290Z,2.04
2018-11-03T05:58:15.385Z,2.10
2018-11-03T05:59:15.272Z,2.01
2018-11-03T06:00:15.327Z,2.01
2018-11-03T06:01:15.242Z,2.11
2018-11-03T06:02:15.271Z,2.03
2018-11-03T06:03:15.260Z,2.01
2018-11-03T06:04:15.204Z,2.06
2018-11-03T06:05:15.335Z,2.06
2018-11-03T06:06:15.204Z,1.95
2018-11-03T06:07:15.178Z,1.97
2018-11-03T06:08:15.167Z,2.03
2018-11-03T06:09:15.276Z,2.00
2018-11-03T06:10:15.141Z,2.04
2018-11-03T06:11:15.169Z,2.06
2018-11-03T06:12:15.127Z,1.99
2018-11-03T06:13:15.136Z,1.93
2018-11-03T06:14:15.236Z,1.91
2018-11-03T06:15:15.156Z,2.00
2018-11-03T06:16:15.090Z,1.99
2018-11-03T06:17:15.086Z,1.89
2018-11-03T06:18:15.066Z,1.99
2018-11-03T06:19:15.072Z,1.97
2018-11-03T06:20:15.032Z,2.06
2018-11-03T06:21:15.074Z,1.95
2018-11-03T06:22:15.074Z,2.11
2018-11-03T06:23:15.030Z,2.07
2018-11-03T06:24:15.154Z,2.10
2018-11-03T06:25:15.117Z,2.04
2018-11-03T06:26:14.970Z,2.04
2018-11-03T06:27:15.363Z,2.01
2018-11-03T06:28:15.110Z,2.01
2018-11-03T06:29:14.960Z,1.92
2018-11-03T06:30:14.921Z,1.95
2018-11-03T06:31:14.914Z,2.06
2018-11-03T06:32:14.911Z,2.12
2018-11-03T06:33:14.939Z,2.14
2018-11-03T06:34:14.928Z,2.10
2018-11-03T06:35:14.972Z,2.12
2018-11-03T06:36:14.862Z,2.14
2018-11-03T06:37:14.859Z,2.19
2018-11-03T06:38:14.936Z,2.18
2018-11-03T06:39:14.877Z,2.14
2018-11-03T06:40:14.812Z,2.17
2018-11-03T06:41:14.802Z,2.15
2018-11-03T06:42:14.932Z,2.21
2018-11-03T06:43:14.801Z,2.24
2018-11-03T06:44:14.769Z,2.17
2018-11-03T06:45:14.781Z,2.24
2018-11-03T06:46:14.818Z,2.32
2018-11-03T06:47:14.797Z,2.17
2018-11-03T06:48:14.768Z,2.28
2018-11-03T06:49:14.716Z,2.14
2018-11-03T06:50:14.740Z,2.25
2018-11-03T06:51:14.777Z,2.18
2018-11-03T06:52:14.743Z,2.19
2018-11-03T06:53:14.707Z,2.18
2018-11-03T06:54:14.688Z,2.19
2018-11-03T06:55:14.756Z,2.11
2018-11-03T06:56:15.314Z,2.14
2018-11-03T06:57:14.923Z,2.14
2018-11-03T06:58:14.666Z,2.14
2018-11-03T06:59:14.623Z,2.03
2018-11-03T07:00:14.620Z,2.19
2018-11-03T07:01:14.583Z,2.17
2018-11-03T07:02:14.621Z,2.22
2018-11-03T07:03:14.650Z,2.10
2018-11-03T07:04:14.573Z,2.22
2018-11-03T07:05:14.754Z,2.30
2018-11-03T07:06:14.532Z,2.25
2018-11-03T07:07:14.614Z,2.14
2018-11-03T07:08:14.548Z,2.15
2018-11-03T07:09:14.495Z,2.21
2018-11-03T07:10:14.679Z,2.28
2018-11-03T07:11:14.549Z,2.24
2018-11-03T07:12:14.515Z,2.29
2018-11-03T07:13:14.591Z,2.30
2018-11-03T07:14:14.455Z,2.35
2018-11-03T07:15:14.509Z,2.36
2018-11-03T07:16:14.435Z,2.37
2018-11-03T07:17:14.453Z,2.39
2018-11-03T07:18:14.399Z,2.40
2018-11-03T07:19:14.458Z,2.39
2018-11-03T07:20:14.751Z,2.45
2018-11-03T07:21:14.394Z,2.43
2018-11-03T07:22:14.422Z,2.48
2018-11-03T07:23:14.353Z,2.51
2018-11-03T07:24:14.337Z,2.48
2018-11-03T07:25:14.388Z,2.51
2018-11-03T07:26:14.357Z,2.55
2018-11-03T07:27:14.306Z,2.58
2018-11-03T07:28:14.289Z,2.54
2018-11-03T07:29:14.288Z,2.53
2018-11-03T07:30:14.282Z,2.45
2018-11-03T07:31:14.340Z,2.47
2018-11-03T07:32:14.240Z,2.48
2018-11-03T07:33:14.761Z,2.53
2018-11-03T07:34:14.241Z,2.43
2018-11-03T07:35:14.217Z,2.48
2018-11-03T07:36:14.235Z,2.51
2018-11-03T07:37:14.260Z,2.42
2018-11-03T07:38:14.175Z,2.43
2018-11-03T07:39:14.178Z,2.48
2018-11-03T07:40:14.160Z,2.45
2018-11-03T07:41:14.213Z,2.39
2018-11-03T07:42:14.141Z,2.45
2018-11-03T07:43:14.179Z,2.39
2018-11-03T07:44:14.110Z,2.51
2018-11-03T07:45:14.131Z,2.55
2018-11-03T07:46:14.171Z,2.55
2018-11-03T07:47:14.083Z,2.66
2018-11-03T07:48:14.109Z,2.65
2018-11-03T07:49:14.263Z,2.63
2018-11-03T07:50:14.050Z,2.65
2018-11-03T07:51:14.064Z,2.76
2018-11-03T07:52:14.032Z,2.78
2018-11-03T07:53:14.127Z,2.72
2018-11-03T07:54:14.006Z,2.78
2018-11-03T07:55:14.742Z,2.78
2018-11-03T07:56:14.074Z,2.81
2018-11-03T07:57:13.974Z,2.71
2018-11-03T07:58:13.973Z,2.76
2018-11-03T07:59:13.953Z,2.75
2018-11-03T08:00:13.964Z,2.76
2018-11-03T08:01:13.925Z,2.81
2018-11-03T08:02:14.017Z,2.73
2018-11-03T08:03:13.903Z,2.69
2018-11-03T08:04:13.925Z,2.73
2018-11-03T08:05:13.906Z,2.84
2018-11-03T08:06:13.880Z,2.75
2018-11-03T08:07:13.903Z,2.73
2018-11-03T08:08:13.862Z,2.73
2018-11-03T08:09:14.858Z,2.76
2018-11-03T08:10:13.875Z,2.78
2018-11-03T08:11:13.872Z,2.73
2018-11-03T08:12:13.836Z,2.73
2018-11-03T08:13:13.925Z,2.78
2018-11-03T08:14:13.815Z,2.76
2018-11-03T08:15:14.317Z,2.79
2018-11-03T08:16:13.766Z,2.79
2018-11-03T08:17:13.780Z,2.75
2018-11-03T08:18:13.757Z,2.78
2018-11-03T08:19:13.740Z,2.76
2018-11-03T08:20:13.727Z,2.76
2018-11-03T08:21:13.711Z,2.71
2018-11-03T08:22:13.718Z,2.86
2018-11-03T08:23:13.739Z,2.93
2018-11-03T08:24:13.679Z,2.94
2018-11-03T08:25:13.662Z,3.02
2018-11-03T08:26:13.663Z,3.04
2018-11-03T08:27:13.672Z,3.04
2018-11-03T08:28:13.633Z,3.09
2018-11-03T08:29:13.648Z,3.14
2018-11-03T08:30:13.623Z,3.18
2018-11-03T08:31:13.606Z,3.27
2018-11-03T08:32:13.615Z,3.33
2018-11-03T08:33:13.608Z,3.36
2018-11-03T08:34:13.564Z,3.44
2018-11-03T08:35:13.561Z,3.30
2018-11-03T08:36:13.556Z,3.37
2018-11-03T08:37:13.750Z,3.15
2018-11-03T08:38:13.591Z,3.20
2018-11-03T08:39:13.536Z,3.22
2018-11-03T08:40:13.577Z,3.33
2018-11-03T08:41:13.491Z,3.22
2018-11-03T08:42:14.235Z,3.25
2018-11-03T08:43:13.600Z,3.15
2018-11-03T08:44:13.460Z,3.22
2018-11-03T08:45:13.453Z,3.37
2018-11-03T08:46:13.534Z,3.26
2018-11-03T08:47:13.494Z,3.42
2018-11-03T08:48:13.594Z,3.33
2018-11-03T08:49:13.412Z,3.36
2018-11-03T08:50:13.423Z,3.41
2018-11-03T08:51:13.407Z,3.35
2018-11-03T08:52:13.383Z,3.33
2018-11-03T08:53:13.446Z,3.33
2018-11-03T08:54:13.378Z,3.33
2018-11-03T08:55:13.343Z,3.15
2018-11-03T08:56:13.323Z,3.17
2018-11-03T08:57:13.318Z,3.15
2018-11-03T08:58:13.333Z,3.29
2018-11-03T08:59:13.302Z,3.45
2018-11-03T09:00:13.385Z,3.49
2018-11-03T09:01:13.286Z,3.52
2018-11-03T09:02:13.309Z,3.60
2018-11-03T09:03:13.273Z,3.55
2018-11-03T09:04:13.234Z,3.51
2018-11-03T09:05:13.268Z,3.48
2018-11-03T09:06:13.231Z,3.67
2018-11-03T09:07:13.413Z,3.67
2018-11-03T09:08:13.232Z,3.70
2018-11-03T09:09:13.332Z,3.81
2018-11-03T09:10:13.189Z,3.90
2018-11-03T09:11:13.187Z,3.90
2018-11-03T09:12:13.246Z,3.85
2018-11-03T09:13:13.291Z,3.84
2018-11-03T09:14:13.147Z,3.84
2018-11-03T09:15:13.338Z,3.87
2018-11-03T09:16:13.155Z,3.94
2018-11-03T09:17:13.102Z,3.98
2018-11-03T09:18:13.110Z,4.02
2018-11-03T09:19:13.077Z,4.05
2018-11-03T09:20:13.059Z,4.03
2018-11-03T09:21:13.049Z,4.06
2018-11-03T09:22:13.042Z,4.02
2018-11-03T09:23:13.063Z,4.03
2018-11-03T09:24:13.061Z,4.09
2018-11-03T09:25:13.035Z,4.03
2018-11-03T09:26:13.022Z,4.10
2018-11-03T09:27:13.014Z,4.13
2018-11-03T09:28:12.978Z,4.21
2018-11-03T09:29:13.039Z,4.31
2018-11-03T09:30:13.054Z,4.30
2018-11-03T09:31:13.723Z,4.23
2018-11-03T09:32:12.950Z,4.34
2018-11-03T09:33:12.924Z,4.36
2018-11-03T09:34:12.988Z,4.31
2018-11-03T09:35:12.965Z,4.35
2018-11-03T09:36:13.258Z,4.34
2018-11-03T09:37:13.723Z,4.41
2018-11-03T09:38:12.872Z,4.43
2018-11-03T09:39:12.948Z,4.49
2018-11-03T09:40:13.307Z,4.54
2018-11-03T09:41:13.278Z,4.53
2018-11-03T09:42:12.817Z,4.54
2018-11-03T09:43:12.877Z,4.53
2018-11-03T09:44:12.823Z,4.49
2018-11-03T09:45:12.884Z,4.54
2018-11-03T09:46:12.776Z,4.53
2018-11-03T09:47:12.778Z,4.56
2018-11-03T09:48:12.759Z,4.59
2018-11-03T09:49:12.958Z,4.56
2018-11-03T09:50:12.744Z,4.54
2018-11-03T09:51:12.766Z,4.53
2018-11-03T09:52:12.803Z,4.56
2018-11-03T09:53:12.758Z,4.54
2018-11-03T09:54:12.731Z,4.57
2018-11-03T09:55:12.682Z,4.64
2018-11-03T09:56:12.670Z,4.75
2018-11-03T09:57:12.655Z,4.91
2018-11-03T09:58:12.663Z,4.83
2018-11-03T09:59:12.643Z,4.96
2018-11-03T10:00:12.661Z,4.93
2018-11-03T10:01:12.624Z,4.94
2018-11-03T10:02:12.600Z,5.04
2018-11-03T10:03:12.613Z,5.14
2018-11-03T10:04:12.622Z,5.22
2018-11-03T10:05:12.783Z,5.37
2018-11-03T10:06:12.723Z,5.32
2018-11-03T10:07:12.541Z,5.48
2018-11-03T10:08:12.577Z,5.48
2018-11-03T10:09:12.596Z,5.69
2018-11-03T10:10:12.559Z,5.69
2018-11-03T10:11:12.656Z,5.90
2018-11-03T10:12:12.487Z,5.98
2018-11-03T10:13:12.478Z,6.06
2018-11-03T10:14:12.509Z,6.16
2018-11-03T10:15:12.527Z,6.31
2018-11-03T10:16:12.569Z,6.34
2018-11-03T10:17:12.446Z,6.47
2018-11-03T10:18:12.440Z,6.49
2018-11-03T10:19:12.421Z,6.99
2018-11-03T10:20:12.450Z,7.29
2018-11-03T10:21:12.403Z,7.66
2018-11-03T10:22:12.460Z,8.04
2018-11-03T10:23:12.369Z,8.35
2018-11-03T10:24:12.364Z,8.68
2018-11-03T10:25:12.389Z,8.83
2018-11-03T10:26:12.331Z,8.90
2018-11-03T10:27:12.357Z,8.86
2018-11-03T10:28:12.343Z,8.90
2018-11-03T10:29:12.298Z,9.12
2018-11-03T10:30:12.321Z,9.23
2018-11-03T10:31:12.283Z,9.34
2018-11-03T10:32:12.280Z,9.69
2018-11-03T10:33:12.260Z,9.93
2018-11-03T10:34:12.255Z,10.02
2018-11-03T10:35:12.251Z,10.14
2018-11-03T10:36:12.218Z,10.17
2018-11-03T10:37:12.205Z,10.09
2018-11-03T10:38:12.202Z,10.18
2018-11-03T10:39:12.188Z,10.27
2018-11-03T10:40:12.179Z,10.41
2018-11-03T10:41:12.188Z,10.39
2018-11-03T10:42:12.169Z,10.27
2018-11-03T10:43:12.137Z,10.17
2018-11-03T10:44:12.129Z,10.23
2018-11-03T10:45:12.138Z,10.23
2018-11-03T10:46:12.207Z,10.24
2018-11-03T10:47:12.112Z,10.20
2018-11-03T10:48:12.088Z,10.03
2018-11-03T10:49:12.072Z,9.94
2018-11-03T10:50:12.064Z,9.90
2018-11-03T10:51:12.124Z,9.73
2018-11-03T10:52:12.036Z,9.67
2018-11-03T10:53:12.029Z,9.63
2018-11-03T10:54:12.031Z,9.54
2018-11-03T10:55:12.018Z,9.45
2018-11-03T10:56:12.017Z,9.36
2018-11-03T10:57:11.996Z,9.29
2018-11-03T10:58:12.000Z,9.27
2018-11-03T10:59:11.978Z,9.26
2018-11-03T11:00:11.949Z,9.27
2018-11-03T11:01:11.978Z,9.16
2018-11-03T11:02:11.934Z,9.24
2018-11-03T11:03:11.924Z,9.26
2018-11-03T11:04:11.930Z,9.12
2018-11-03T11:05:11.892Z,9.24
2018-11-03T11:06:11.941Z,9.26
2018-11-03T11:07:11.869Z,9.36
2018-11-03T11:08:11.864Z,9.32
2018-11-03T11:09:11.879Z,9.50
2018-11-03T11:10:11.841Z,9.54
2018-11-03T11:11:11.830Z,9.69
2018-11-03T11:12:11.841Z,9.81
2018-11-03T11:13:11.811Z,10.06
2018-11-03T11:14:11.868Z,10.28
2018-11-03T11:15:11.789Z,10.39
2018-11-03T11:16:11.793Z,10.70
2018-11-03T11:17:11.807Z,10.83
2018-11-03T11:18:11.759Z,11.18
2018-11-03T11:19:11.749Z,11.34
2018-11-03T11:20:11.842Z,11.70
2018-11-03T11:21:11.723Z,12.15
2018-11-03T11:22:11.737Z,12.93
2018-11-03T11:23:11.710Z,13.61
2018-11-03T11:24:11.786Z,14.28
2018-11-03T11:25:11.784Z,14.85
2018-11-03T11:26:11.662Z,15.48
2018-11-03T11:27:11.679Z,16.06
2018-11-03T11:28:11.650Z,16.59
2018-11-03T11:29:11.651Z,17.13
2018-11-03T11:30:11.694Z,17.84
2018-11-03T11:31:11.655Z,18.56
2018-11-03T11:32:11.622Z,18.93
2018-11-03T11:33:11.580Z,19.39
2018-11-03T11:34:11.603Z,19.77
2018-11-03T11:35:11.561Z,19.57
2018-11-03T11:36:11.561Z,19.71
2018-11-03T11:37:11.663Z,20.00
2018-11-03T11:38:11.624Z,19.75
2018-11-03T11:39:11.515Z,19.70
2018-11-03T11:40:11.503Z,19.57
2018-11-03T11:41:11.495Z,19.72
2018-11-03T11:42:11.513Z,19.87
2018-11-03T11:43:11.561Z,19.81
2018-11-03T11:44:11.476Z,19.96
2018-11-03T11:45:11.452Z,19.86
2018-11-03T11:46:11.437Z,19.68
2018-11-03T11:47:11.438Z,19.70
2018-11-03T11:48:11.518Z,19.75
2018-11-03T11:49:11.404Z,20.02
2018-11-03T11:50:11.437Z,20.12
2018-11-03T11:51:11.385Z,19.86
2018-11-03T11:52:11.369Z,19.39
2018-11-03T11:53:11.411Z,19.34
2018-11-03T11:54:11.413Z,19.50
2018-11-03T11:55:11.336Z,19.81
2018-11-03T11:56:11.346Z,19.47
2018-11-03T11:57:11.322Z,19.49
2018-11-03T11:58:11.339Z,19.30
2018-11-03T11:59:11.301Z,19.05
2018-11-03T12:00:11.284Z,18.93
2018-11-03T12:01:11.314Z,18.67
2018-11-03T12:02:11.296Z,18.58
2018-11-03T12:03:11.262Z,18.33
2018-11-03T12:04:11.257Z,18.26
2018-11-03T12:05:11.222Z,18.09
2018-11-03T12:06:11.217Z,17.93
2018-11-03T12:07:11.296Z,18.08
2018-11-03T12:08:11.244Z,18.33
2018-11-03T12:09:11.204Z,18.60
2018-11-03T12:10:11.382Z,18.79
2018-11-03T12:11:11.222Z,18.67
2018-11-03T12:12:11.144Z,18.27
2018-11-03T12:13:11.135Z,17.99
2018-11-03T12:14:11.462Z,17.97
2018-11-03T12:15:11.116Z,17.53
2018-11-03T12:16:11.363Z,17.52
2018-11-03T12:17:11.092Z,17.43
2018-11-03T12:18:11.096Z,17.45
2018-11-03T12:19:11.091Z,17.25
2018-11-03T12:20:11.161Z,17.30
2018-11-03T12:21:11.040Z,17.43
2018-11-03T12:22:11.036Z,17.47
2018-11-03T12:23:11.018Z,17.47
2018-11-03T12:24:11.041Z,17.37
2018-11-03T12:25:11.012Z,17.17
2018-11-03T12:26:11.052Z,17.14
2018-11-03T12:27:10.973Z,17.13
2018-11-03T12:28:10.960Z,17.19
2018-11-03T12:29:10.975Z,17.10
2018-11-03T12:30:10.945Z,16.88
2018-11-03T12:31:10.945Z,16.76
2018-11-03T12:32:10.984Z,16.43
2018-11-03T12:33:10.946Z,16.24
2018-11-03T12:34:10.983Z,16.06
2018-11-03T12:35:10.912Z,15.99
2018-11-03T12:36:10.877Z,15.90
2018-11-03T12:37:10.864Z,15.69
2018-11-03T12:38:10.851Z,15.68
2018-11-03T12:39:10.917Z,15.58
2018-11-03T12:40:10.877Z,15.51
2018-11-03T12:41:10.885Z,15.36
2018-11-03T12:42:10.855Z,15.30
2018-11-03T12:43:10.805Z,15.25
2018-11-03T12:44:10.826Z,15.20
2018-11-03T12:45:10.800Z,15.10
2018-11-03T12:46:10.841Z,14.86
2018-11-03T12:47:10.761Z,14.79
2018-11-03T12:48:10.848Z,14.56
2018-11-03T12:49:10.747Z,14.64
2018-11-03T12:50:10.773Z,14.58
2018-11-03T12:51:10.744Z,14.46
2018-11-03T12:52:10.836Z,14.37
2018-11-03T12:53:10.817Z,14.30
2018-11-03T12:54:10.720Z,14.30
2018-11-03T12:55:10.825Z,14.19
2018-11-03T12:56:10.660Z,14.09
2018-11-03T12:57:10.739Z,14.16
2018-11-03T12:58:10.683Z,14.08
2018-11-03T12:59:10.676Z,14.11
2018-11-03T13:00:10.656Z,14.05
2018-11-03T13:01:10.627Z,14.12
2018-11-03T13:02:10.590Z,14.05
2018-11-03T13:03:10.710Z,14.11
2018-11-03T13:04:10.662Z,14.09
2018-11-03T13:05:11.123Z,13.85
2018-11-03T13:06:10.605Z,13.90
2018-11-03T13:07:10.539Z,13.75
2018-11-03T13:08:10.520Z,13.68
2018-11-03T13:09:10.748Z,13.54
2018-11-03T13:10:10.503Z,13.46
2018-11-03T13:11:10.522Z,13.32
2018-11-03T13:12:10.610Z,13.30
2018-11-03T13:13:10.477Z,13.16